createdAt,value
2019-02-04T00:01:39.111Z,22.65
2019-02-04T00:04:08.005Z,25.85
2019-02-04T00:06:36.955Z,24.20
2019-02-04T00:09:08.760Z,20.17
2019-02-04T00:11:37.812Z,22.37
2019-02-04T00:14:07.534Z,21.17
2019-02-04T00:16:40.922Z,25.77
2019-02-04T00:19:07.270Z,23.27
2019-02-04T00:21:36.255Z,19.27
2019-02-04T00:24:05.258Z,24.00
2019-02-04T00:26:34.149Z,22.82
2019-02-04T00:29:03.896Z,19.42
2019-02-04T00:31:32.783Z,23.42
2019-02-04T00:34:01.637Z,25.00
2019-02-04T00:36:30.650Z,25.85
2019-02-04T00:39:02.406Z,21.93
2019-02-04T00:41:30.733Z,26.17
2019-02-04T00:43:59.792Z,21.12
2019-02-04T00:46:28.756Z,23.47
2019-02-04T00:48:58.092Z,25.12
2019-02-04T00:51:26.960Z,24.80
2019-02-04T00:53:55.972Z,23.73
2019-02-04T00:56:24.828Z,25.73
2019-02-04T00:58:54.165Z,24.33
2019-02-04T01:01:23.568Z,25.93
2019-02-04T01:03:52.606Z,24.50
2019-02-04T01:06:21.664Z,21.30
2019-02-04T01:08:52.955Z,21.97
2019-02-04T01:11:21.989Z,24.47
2019-02-04T01:13:50.924Z,23.80
2019-02-04T01:16:19.902Z,21.97
2019-02-04T01:18:48.779Z,23.70
2019-02-04T01:21:17.707Z,22.75
2019-02-04T01:23:46.561Z,28.65
2019-02-04T01:26:15.510Z,24.47
2019-02-04T01:28:44.458Z,19.83
2019-02-04T04:35:24.091Z,26.10
2019-02-04T04:37:53.108Z,20.20
2019-02-04T04:40:22.216Z,20.88
2019-02-04T04:42:51.311Z,20.37
2019-02-04T04:45:21.989Z,22.70
2019-02-04T04:47:51.381Z,18.15
2019-02-04T04:50:20.397Z,18.37
2019-02-04T04:52:49.487Z,19.62
2019-02-04T04:55:20.736Z,18.70
2019-02-04T04:57:49.696Z,22.75
2019-02-04T05:00:21.138Z,20.60
2019-02-04T05:02:50.158Z,20.90
2019-02-04T05:05:19.007Z,22.67
2019-02-04T05:07:47.941Z,21.87
2019-02-04T05:10:17.741Z,18.02
2019-02-04T05:12:46.762Z,19.10
2019-02-04T05:15:20.769Z,20.43
2019-02-04T05:17:52.429Z,22.97
2019-02-04T05:20:20.443Z,20.87
2019-02-04T05:22:49.361Z,17.33
2019-02-04T05:25:18.691Z,19.15
2019-02-04T05:27:47.680Z,24.12
2019-02-04T05:30:18.547Z,20.80
2019-02-04T05:32:47.624Z,21.57
2019-02-04T05:35:16.633Z,20.93
2019-02-04T05:37:45.641Z,21.85
2019-02-04T05:40:15.499Z,19.20
2019-02-04T05:42:45.012Z,18.48
2019-02-04T05:45:16.265Z,19.87
2019-02-04T05:47:45.538Z,21.10
2019-02-04T05:50:17.569Z,21.80
2019-02-04T05:52:46.784Z,21.37
2019-02-04T05:55:17.357Z,20.30
2019-02-04T05:57:47.785Z,18.30
2019-02-04T06:00:22.439Z,21.57
2019-02-04T06:02:51.376Z,21.17
2019-02-04T06:05:20.442Z,21.07
2019-02-04T06:07:49.840Z,19.87
2019-02-04T06:10:19.371Z,21.87
2019-02-04T06:12:48.462Z,20.60
2019-02-04T06:15:17.497Z,20.93
2019-02-04T06:17:46.590Z,18.80
2019-02-04T06:20:17.328Z,19.92
2019-02-04T06:22:46.264Z,22.17
2019-02-04T06:25:15.227Z,21.93
2019-02-04T06:27:44.272Z,23.33
2019-02-04T06:30:13.812Z,20.72
2019-02-04T06:32:42.999Z,22.50
2019-02-04T06:35:12.133Z,21.40
2019-02-04T06:37:41.064Z,26.65
2019-02-04T06:40:11.549Z,28.55
2019-02-04T06:42:40.712Z,24.37
2019-02-04T06:45:11.877Z,20.90
2019-02-04T06:47:40.810Z,23.23
2019-02-04T06:50:12.050Z,19.17
2019-02-04T06:52:41.361Z,22.50
2019-02-04T06:55:13.231Z,16.97
2019-02-04T06:57:42.148Z,21.07
2019-02-04T07:00:12.602Z,21.73
2019-02-04T07:02:43.925Z,17.37
2019-02-04T07:05:12.924Z,18.33
2019-02-04T07:07:41.979Z,23.83
2019-02-04T07:10:13.801Z,22.13
2019-02-04T07:12:42.693Z,19.53
2019-02-04T07:15:11.933Z,24.13
2019-02-04T07:17:40.887Z,21.30
2019-02-04T07:20:18.824Z,21.67
2019-02-04T07:22:47.850Z,22.48
2019-02-04T07:25:17.694Z,23.37
2019-02-04T07:27:48.781Z,19.53
2019-02-04T07:30:19.790Z,21.80
2019-02-04T07:32:49.350Z,17.93
2019-02-04T07:35:18.722Z,19.47
2019-02-04T07:37:47.917Z,20.20
2019-02-04T07:40:19.356Z,25.80
2019-02-04T07:42:49.000Z,24.23
2019-02-04T07:45:18.217Z,22.17
2019-02-04T07:47:47.624Z,22.73
2019-02-04T07:50:16.709Z,22.53
2019-02-04T07:52:46.104Z,23.20
2019-02-04T07:55:15.136Z,23.60
2019-02-04T07:57:44.184Z,24.40
2019-02-04T08:00:19.401Z,23.63
2019-02-04T08:02:48.730Z,24.43
2019-02-04T08:05:17.765Z,25.33
2019-02-04T08:07:46.766Z,27.47
2019-02-04T08:10:15.806Z,23.80
2019-02-04T08:12:44.814Z,24.03
2019-02-04T08:15:16.917Z,24.10
2019-02-04T08:17:45.871Z,20.60
2019-02-04T08:20:14.882Z,23.67
2019-02-04T08:22:43.890Z,25.13
2019-02-04T08:25:13.417Z,24.83
2019-02-04T08:27:42.424Z,24.43
2019-02-04T08:30:21.494Z,23.80
2019-02-04T08:32:50.416Z,23.70
2019-02-04T08:35:19.418Z,21.90
2019-02-04T08:37:48.484Z,21.17
2019-02-04T08:40:17.511Z,21.53
2019-02-04T08:42:46.689Z,20.73
2019-02-04T08:45:16.289Z,28.63
2019-02-04T08:47:45.356Z,32.00
2019-02-04T08:50:16.386Z,43.63
2019-02-04T08:52:45.438Z,23.40
2019-02-04T08:55:14.456Z,23.50
2019-02-04T08:57:43.498Z,22.27
2019-02-04T09:00:15.621Z,23.17
2019-02-04T09:02:45.988Z,24.87
2019-02-04T09:05:16.941Z,20.23
2019-02-04T09:07:45.932Z,21.37
2019-02-04T09:10:21.953Z,20.53
2019-02-04T09:12:52.977Z,22.80
2019-02-04T09:15:21.987Z,23.50
2019-02-04T09:17:51.069Z,19.63
2019-02-04T09:20:20.389Z,18.33
2019-02-04T09:22:50.018Z,17.50
2019-02-04T09:25:19.197Z,17.67
2019-02-04T09:27:48.721Z,16.67
2019-02-04T09:30:19.710Z,18.90
2019-02-04T09:32:48.805Z,23.37
2019-02-04T09:35:18.838Z,14.60
2019-02-04T09:37:48.027Z,12.17
2019-02-04T09:40:35.466Z,15.70
2019-02-04T09:43:04.679Z,14.90
2019-02-04T09:45:33.754Z,14.83
2019-02-04T09:48:02.879Z,12.60
2019-02-04T09:50:33.070Z,14.97
2019-02-04T09:53:02.077Z,12.40
2019-02-04T09:55:33.416Z,13.70
2019-02-04T09:58:02.499Z,13.73
2019-02-04T10:00:33.338Z,13.63
2019-02-04T10:03:02.318Z,11.77
2019-02-04T10:05:31.233Z,12.97
2019-02-04T10:08:00.318Z,11.93
2019-02-04T10:10:29.319Z,9.77
2019-02-04T10:12:58.626Z,11.17
2019-02-04T10:15:30.292Z,12.40
2019-02-04T10:17:59.223Z,11.57
2019-02-04T10:20:34.159Z,17.00
2019-02-04T10:22:59.143Z,12.03
2019-02-04T10:25:30.245Z,10.67
2019-02-04T10:27:59.273Z,12.40
2019-02-04T10:30:28.447Z,13.20
2019-02-04T10:32:57.350Z,15.93
2019-02-04T10:35:26.361Z,11.87
2019-02-04T10:37:55.520Z,14.83
2019-02-04T10:40:25.772Z,12.37
2019-02-04T10:42:55.331Z,15.13
2019-02-04T10:45:24.539Z,17.33
2019-02-04T10:47:55.750Z,12.67
2019-02-04T10:50:30.078Z,15.10
2019-02-04T10:52:59.321Z,13.57
2019-02-04T10:55:28.444Z,16.17
2019-02-04T10:57:57.554Z,14.87
2019-02-04T11:00:30.207Z,14.17
2019-02-04T11:03:04.138Z,10.77
2019-02-04T11:05:37.053Z,11.83
2019-02-04T11:08:07.369Z,13.20
2019-02-04T11:10:37.397Z,13.50
2019-02-04T11:13:21.251Z,11.73
2019-02-04T11:15:50.889Z,13.90
2019-02-04T11:18:22.122Z,12.57
2019-02-04T11:20:58.064Z,13.67
2019-02-04T11:23:22.035Z,12.57
2019-02-04T11:25:51.199Z,11.83
2019-02-04T11:28:22.675Z,14.93
2019-02-04T11:31:03.590Z,8.93
2019-02-04T11:33:33.605Z,13.27
2019-02-04T11:36:02.691Z,12.37
2019-02-04T11:38:33.381Z,10.33
2019-02-04T11:41:05.570Z,11.47
2019-02-04T11:43:36.732Z,11.27
2019-02-04T11:46:05.997Z,10.50
2019-02-04T11:48:35.818Z,14.57
2019-02-04T11:51:09.649Z,10.10
2019-02-04T11:53:37.069Z,11.23
2019-02-04T11:56:14.321Z,12.23
2019-02-04T11:58:44.911Z,11.60
2019-02-04T12:01:18.326Z,12.70
2019-02-04T12:03:48.091Z,10.33
2019-02-04T12:06:17.670Z,14.33
2019-02-04T12:08:49.518Z,11.13
2019-02-04T12:11:20.589Z,12.17
2019-02-04T12:13:53.446Z,13.40
2019-02-04T12:16:22.421Z,10.87
2019-02-04T12:18:51.381Z,13.57
2019-02-04T12:21:21.991Z,14.63
2019-02-04T12:23:56.481Z,13.43
2019-02-04T12:26:25.992Z,14.30
2019-02-04T12:28:58.210Z,11.83
2019-02-04T12:31:27.741Z,14.90
2019-02-04T12:33:59.162Z,13.77
2019-02-04T12:36:28.194Z,10.40
2019-02-04T12:38:57.657Z,14.20
2019-02-04T12:41:27.996Z,10.13
2019-02-04T12:43:57.385Z,12.97
2019-02-04T12:46:26.810Z,10.67
2019-02-04T12:48:56.492Z,11.67
2019-02-04T12:51:33.313Z,13.10
2019-02-04T12:53:56.982Z,12.00
2019-02-04T12:56:26.270Z,11.43
2019-02-04T12:58:58.132Z,12.27
2019-02-04T13:01:27.420Z,11.10
2019-02-04T13:03:56.376Z,13.87
2019-02-04T13:06:26.570Z,12.97
2019-02-04T13:08:55.518Z,15.33
2019-02-04T13:11:26.356Z,14.03
2019-02-04T13:13:57.045Z,13.03
2019-02-04T13:16:26.069Z,16.17
2019-02-04T13:18:55.114Z,14.97
2019-02-04T13:21:24.787Z,13.87
2019-02-04T13:23:56.837Z,11.30
2019-02-04T13:26:27.168Z,13.33
2019-02-04T13:28:56.168Z,11.77
2019-02-04T13:31:25.209Z,11.17
2019-02-04T13:33:54.264Z,12.53
2019-02-04T13:36:25.067Z,16.60
2019-02-04T13:38:54.245Z,12.50
2019-02-04T13:41:23.754Z,13.20
2019-02-04T13:43:52.804Z,12.13
2019-02-04T13:46:22.074Z,12.77
2019-02-04T13:48:51.443Z,14.97
2019-02-04T13:51:20.405Z,15.17
2019-02-04T13:53:49.424Z,14.17
2019-02-04T13:56:18.740Z,16.13
2019-02-04T13:58:47.761Z,14.80
2019-02-04T14:01:16.751Z,17.20
2019-02-04T14:03:48.369Z,16.97
2019-02-04T14:06:18.535Z,17.30
2019-02-04T14:08:47.941Z,17.23
2019-02-04T14:11:16.784Z,15.77
2019-02-04T14:13:45.812Z,16.20
2019-02-04T14:16:18.013Z,16.33
2019-02-04T14:18:46.966Z,18.93
2019-02-04T14:21:16.007Z,21.20
2019-02-04T14:23:45.045Z,18.45
2019-02-04T14:26:14.109Z,22.25
2019-02-04T14:28:43.161Z,18.10
2019-02-04T14:31:16.028Z,20.00
2019-02-04T14:33:45.082Z,22.97
2019-02-04T14:36:14.987Z,19.47
2019-02-04T14:38:44.196Z,17.43
2019-02-04T14:41:13.710Z,17.73
2019-02-04T14:43:52.531Z,21.55
2019-02-04T14:46:50.611Z,20.02
2019-02-04T14:50:00.863Z,20.17
2019-02-04T14:53:03.675Z,19.17
2019-02-04T14:56:08.582Z,19.07
2019-02-04T15:11:56.604Z,17.27
2019-02-04T15:15:16.657Z,16.37
2019-02-04T15:18:12.982Z,16.40
2019-02-04T15:21:18.745Z,15.83
2019-02-04T15:24:22.023Z,15.90
2019-02-04T15:27:21.095Z,16.43
2019-02-04T15:30:23.645Z,16.37
2019-02-04T15:33:22.305Z,17.85
2019-02-04T15:36:28.157Z,14.57
2019-02-04T15:39:47.871Z,18.70
2019-02-04T15:43:08.830Z,19.15
2019-02-04T15:46:18.967Z,16.27
2019-02-04T15:49:50.374Z,18.23
2019-02-04T15:52:14.148Z,18.85
2019-02-04T15:54:44.037Z,18.13
2019-02-04T15:57:14.541Z,19.23
2019-02-04T15:59:43.434Z,17.98
2019-02-04T16:02:12.472Z,19.25
2019-02-04T16:04:41.437Z,18.90
2019-02-04T16:07:14.018Z,18.35
2019-02-04T16:09:48.083Z,17.77
2019-02-04T16:12:19.686Z,19.12
2019-02-04T16:14:48.812Z,23.57
2019-02-04T16:17:19.291Z,19.52
2019-02-04T16:19:48.454Z,24.10
2019-02-04T16:22:17.678Z,23.98
2019-02-04T16:27:35.831Z,20.82
